Time;durP1;ratioP1;P1;durP2;ratioP2;P2;SDS_P1;SDS_P2;PMS_P1;PMS_P2;Temp;Humidity;BMP_temperature;BMP_pressure;BME280_temperature;BME280_humidity;BME280_pressure;Samples;Min_cycle;Max_cycle;Signal;HPM_P1;HPM_P2
2021/12/10 00:01:47;;;;;;;23.33;21.73;;;4.00;84.00;;;;;;5054532;28;20291;-72
2021/12/10 00:04:14;;;;;;;22.35;21.05;;;4.00;84.60;;;;;;5053469;28;20223;-72
2021/12/10 00:06:46;;;;;;;22.80;20.98;;;3.90;83.90;;;;;;5054547;28;20738;-72
2021/12/10 00:09:16;;;;;;;21.67;20.25;;;3.90;84.00;;;;;;5054578;28;20210;-72
2021/12/10 00:11:46;;;;;;;21.45;19.90;;;3.80;84.00;;;;;;5054370;28;20192;-72
2021/12/10 00:14:14;;;;;;;20.92;19.73;;;3.60;84.90;;;;;;5054074;28;20212;-72
2021/12/10 00:16:42;;;;;;;21.08;19.58;;;3.60;85.30;;;;;;5054485;28;20292;-72
2021/12/10 00:19:21;;;;;;;22.08;20.88;;;3.70;85.00;;;;;;5054278;28;20255;-72
2021/12/10 00:21:51;;;;;;;20.20;18.90;;;3.70;84.40;;;;;;5054370;28;20291;-72
2021/12/10 00:24:20;;;;;;;21.92;20.00;;;3.60;86.70;;;;;;5054013;28;20266;-72
2021/12/10 00:26:47;;;;;;;20.35;18.75;;;3.50;88.40;;;;;;5054267;28;20621;-72
2021/12/10 00:29:15;;;;;;;20.52;19.20;;;3.50;87.10;;;;;;5054196;28;20203;-72
2021/12/10 00:31:48;;;;;;;21.85;19.98;;;3.50;85.80;;;;;;5054155;28;20197;-72
2021/12/10 00:34:23;;;;;;;21.23;19.92;;;3.40;86.00;;;;;;5053894;28;20217;-72
2021/12/10 00:36:54;;;;;;;22.83;20.85;;;3.50;85.10;;;;;;5054061;28;20203;-72
2021/12/10 00:39:24;;;;;;;20.98;19.77;;;3.50;84.90;;;;;;5053611;28;20222;-72
2021/12/10 00:41:52;;;;;;;22.00;20.40;;;3.40;85.10;;;;;;5053766;28;20212;-72
2021/12/10 00:44:20;;;;;;;21.65;19.92;;;3.30;87.00;;;;;;5053614;28;20223;-72
2021/12/10 00:46:47;;;;;;;21.25;19.85;;;3.20;88.90;;;;;;5053395;28;20674;-72
2021/12/10 00:49:14;;;;;;;20.35;19.05;;;3.20;89.00;;;;;;5053839;28;20196;-72
2021/12/10 00:51:41;;;;;;;23.73;20.25;;;3.20;88.10;;;;;;5053845;28;20205;-72
2021/12/10 00:54:12;;;;;;;21.30;19.85;;;3.10;88.40;;;;;;5053345;28;20690;-72
2021/12/10 00:56:41;;;;;;;20.23;18.92;;;3.00;88.80;;;;;;5053963;28;20192;-72
2021/12/10 00:59:09;;;;;;;22.85;21.15;;;3.00;89.70;;;;;;5053628;28;20197;-72
2021/12/10 01:01:36;;;;;;;20.60;18.98;;;3.00;89.30;;;;;;5053543;28;20680;-72
2021/12/10 01:04:09;;;;;;;21.05;19.60;;;2.90;89.20;;;;;;5053239;28;20225;-72
2021/12/10 01:06:38;;;;;;;21.15;19.92;;;2.90;89.60;;;;;;5053585;28;20733;-72
2021/12/10 01:09:09;;;;;;;21.70;20.02;;;2.80;89.30;;;;;;5053406;28;20200;-72
2021/12/10 01:11:41;;;;;;;20.25;18.95;;;2.70;88.90;;;;;;5053388;28;20201;-72
2021/12/10 01:14:18;;;;;;;21.70;20.30;;;2.70;88.70;;;;;;5053292;28;20228;-72
2021/12/10 01:25:11;;;;;;;20.80;19.30;;;2.50;88.40;;;;;;5052969;28;20690;-72
2021/12/10 01:27:44;;;;;;;21.70;20.30;;;2.50;91.10;;;;;;5053249;28;20208;-73
2021/12/10 01:30:17;;;;;;;21.30;19.90;;;2.50;89.40;;;;;;5053060;28;20303;-72
2021/12/10 01:32:48;;;;;;;22.25;20.75;;;2.50;88.90;;;;;;5052786;28;20196;-72
2021/12/10 01:35:18;;;;;;;22.42;21.02;;;2.40;88.70;;;;;;5053041;28;20654;-72
2021/12/10 01:37:45;;;;;;;21.90;20.70;;;2.30;89.00;;;;;;5052849;28;20562;-72
2021/12/10 01:40:13;;;;;;;21.15;19.75;;;2.30;89.10;;;;;;5052410;28;20193;-72
2021/12/10 01:42:45;;;;;;;20.80;19.60;;;2.20;89.40;;;;;;5052747;28;20259;-72
2021/12/10 01:45:21;;;;;;;271.15;48.88;;;2.20;89.50;;;;;;5052569;28;20196;-72
2021/12/10 01:47:58;;;;;;;21.60;20.20;;;2.20;89.90;;;;;;5052826;28;20204;-72
2021/12/10 01:50:27;;;;;;;20.38;19.25;;;2.10;90.50;;;;;;5052708;28;20200;-72
2021/12/10 01:52:56;;;;;;;20.55;19.25;;;2.10;90.30;;;;;;5052444;28;20193;-72
2021/12/10 01:55:25;;;;;;;20.83;19.42;;;2.10;92.90;;;;;;5052817;28;20540;-72
2021/12/10 01:57:56;;;;;;;21.27;19.40;;;2.00;92.60;;;;;;5052574;28;20658;-72
2021/12/10 02:00:30;;;;;;;20.48;19.05;;;2.00;92.10;;;;;;5052680;28;20628;-72
2021/12/10 02:02:57;;;;;;;21.42;20.02;;;1.90;91.50;;;;;;5052271;28;20224;-72
2021/12/10 02:05:24;;;;;;;266.20;41.63;;;1.90;91.10;;;;;;5052534;28;20207;-72
2021/12/10 02:07:51;;;;;;;21.05;19.48;;;1.90;90.90;;;;;;5052569;28;20201;-72
2021/12/10 02:10:21;;;;;;;20.95;19.40;;;1.90;94.20;;;;;;5052558;28;20196;-72
2021/12/10 02:12:48;;;;;;;21.65;19.60;;;1.90;94.20;;;;;;5052249;28;20323;-72
2021/12/10 02:15:18;;;;;;;20.88;19.35;;;2.00;92.90;;;;;;5052437;28;20204;-72
2021/12/10 02:17:47;;;;;;;20.90;19.08;;;1.90;93.30;;;;;;5052499;28;20197;-72
2021/12/10 02:20:18;;;;;;;22.00;19.95;;;1.90;92.90;;;;;;5052460;28;20291;-72
2021/12/10 02:22:47;;;;;;;19.60;18.38;;;1.90;92.90;;;;;;5052003;28;20283;-72
2021/12/10 02:25:22;;;;;;;20.10;18.95;;;1.90;92.20;;;;;;5052455;28;20196;-72
2021/12/10 02:27:49;;;;;;;20.60;19.20;;;1.90;91.70;;;;;;5053788;28;20200;-72
2021/12/10 02:30:18;;;;;;;21.27;19.77;;;1.80;91.10;;;;;;5056348;28;20674;-72
2021/12/10 02:32:45;;;;;;;21.17;19.67;;;1.80;91.30;;;;;;5056097;28;20197;-72
2021/12/10 02:35:15;;;;;;;20.20;18.65;;;1.80;91.10;;;;;;5056178;28;20629;-72
2021/12/10 02:37:43;;;;;;;20.90;19.50;;;1.80;91.00;;;;;;5056335;28;20627;-72
2021/12/10 02:40:14;;;;;;;20.33;18.92;;;1.80;90.80;;;;;;5055594;28;20197;-72
2021/12/10 02:42:41;;;;;;;20.35;19.13;;;1.80;90.50;;;;;;5055999;28;20208;-72
2021/12/10 02:45:09;;;;;;;20.75;19.35;;;1.70;90.70;;;;;;5055880;28;20193;-72
2021/12/10 02:47:37;;;;;;;20.98;19.48;;;1.70;90.50;;;;;;5056255;28;20695;-72
2021/12/10 02:50:05;;;;;;;19.40;18.15;;;1.80;90.40;;;;;;5056138;28;20658;-72
2021/12/10 02:52:32;;;;;;;21.25;19.63;;;1.80;90.10;;;;;;5055994;28;20207;-72
2021/12/10 02:54:59;;;;;;;20.27;19.08;;;1.80;90.80;;;;;;5055664;28;20297;-72
2021/12/10 02:57:28;;;;;;;21.75;20.10;;;1.80;90.40;;;;;;5055947;28;20200;-72
2021/12/10 02:59:55;;;;;;;20.90;19.70;;;1.70;91.00;;;;;;5055929;28;20566;-72
2021/12/10 03:02:26;;;;;;;20.77;19.27;;;1.70;91.80;;;;;;5055846;28;20200;-72
2021/12/10 03:04:53;;;;;;;21.40;19.58;;;1.70;91.30;;;;;;5055533;28;20217;-72
2021/12/10 03:07:22;;;;;;;21.15;19.85;;;1.60;90.60;;;;;;5055732;28;20634;-72
2021/12/10 03:09:52;;;;;;;20.33;19.02;;;1.60;90.20;;;;;;5055574;28;20298;-72
2021/12/10 03:12:20;;;;;;;20.30;19.10;;;1.70;89.80;;;;;;5055908;28;20617;-72
2021/12/10 03:14:51;;;;;;;22.80;20.13;;;1.80;90.00;;;;;;5055307;28;20327;-72
2021/12/10 03:17:21;;;;;;;19.85;18.55;;;1.70;89.20;;;;;;5055643;28;20207;-72
2021/12/10 03:19:49;;;;;;;20.50;19.10;;;1.70;89.20;;;;;;5055422;28;20578;-72
2021/12/10 03:22:16;;;;;;;21.55;20.13;;;1.70;89.70;;;;;;5055477;28;20206;-72
2021/12/10 03:24:43;;;;;;;31.63;21.30;;;1.60;89.80;;;;;;5055076;28;20225;-72
2021/12/10 03:27:11;;;;;;;1583.78;210.93;;;1.60;91.50;;;;;;5055426;28;20196;-72
2021/12/10 03:29:41;;;;;;;20.15;18.55;;;1.60;93.40;;;;;;5055423;28;20228;-72
2021/12/10 03:32:12;;;;;;;20.55;19.05;;;1.60;94.60;;;;;;5055388;28;20288;-72
2021/12/10 03:34:40;;;;;;;20.45;18.90;;;1.60;93.90;;;;;;5054970;28;20227;-72
2021/12/10 03:37:08;;;;;;;20.88;19.77;;;1.50;92.90;;;;;;5055244;28;20688;-72
2021/12/10 03:39:36;;;;;;;20.05;18.95;;;1.50;91.60;;;;;;5053582;28;20203;-72
2021/12/10 03:42:06;;;;;;;21.92;20.38;;;1.50;90.80;;;;;;5055087;28;20208;-72
2021/12/10 03:44:34;;;;;;;20.20;19.00;;;1.50;90.50;;;;;;5054574;28;20223;-71
2021/12/10 03:47:03;;;;;;;21.02;19.38;;;1.50;90.10;;;;;;5054768;28;20211;-72
2021/12/10 03:49:31;;;;;;;100.28;25.83;;;1.50;89.70;;;;;;5054961;28;20193;-72
2021/12/10 03:51:59;;;;;;;20.70;19.30;;;1.50;92.10;;;;;;5054970;28;20581;-72
2021/12/10 03:54:26;;;;;;;22.85;21.17;;;1.50;90.80;;;;;;5054649;28;20299;-72
2021/12/10 03:56:54;;;;;;;67.13;23.77;;;1.40;90.80;;;;;;5054851;28;20203;-72
2021/12/10 03:59:24;;;;;;;22.08;20.42;;;1.50;92.10;;;;;;5054668;28;20201;-72
2021/12/10 04:01:55;;;;;;;24.50;21.90;;;1.40;91.20;;;;;;5054799;28;20562;-72
2021/12/10 04:04:25;;;;;;;22.48;21.00;;;1.40;93.60;;;;;;5054412;28;20239;-72
2021/12/10 04:06:55;;;;;;;21.42;20.15;;;1.40;92.90;;;;;;5054582;28;20203;-72
2021/12/10 04:09:22;;;;;;;22.23;20.80;;;1.40;92.10;;;;;;5054606;28;20246;-72
2021/12/10 04:11:50;;;;;;;21.60;20.40;;;1.40;91.10;;;;;;5054454;28;20196;-72
2021/12/10 04:14:17;;;;;;;22.50;20.95;;;1.50;90.20;;;;;;5054288;28;20303;-72
2021/12/10 04:16:45;;;;;;;398.08;57.90;;;1.50;89.20;;;;;;5054374;28;20193;-72
2021/12/10 04:19:14;;;;;;;22.17;20.73;;;1.60;89.70;;;;;;5054340;28;20200;-72
2021/12/10 04:21:42;;;;;;;22.70;20.73;;;1.50;89.80;;;;;;5054571;28;20201;-72
2021/12/10 04:24:14;;;;;;;22.70;21.10;;;1.60;89.10;;;;;;5053941;28;20700;-72
2021/12/10 04:26:41;;;;;;;25.48;23.60;;;1.60;89.00;;;;;;5054483;28;20204;-72
2021/12/10 04:29:09;;;;;;;24.00;22.25;;;1.50;88.70;;;;;;5054188;28;20200;-72
2021/12/10 04:31:36;;;;;;;24.50;22.92;;;1.50;88.80;;;;;;5054206;28;20197;-72
2021/12/10 04:34:03;;;;;;;22.90;21.27;;;1.40;88.60;;;;;;5053887;28;20218;-72
2021/12/10 04:36:30;;;;;;;23.73;22.02;;;1.40;88.80;;;;;;5054216;28;20594;-72
2021/12/10 04:38:58;;;;;;;22.10;20.73;;;1.40;88.90;;;;;;5053936;28;20203;-72
2021/12/10 04:41:27;;;;;;;25.10;23.80;;;1.30;88.80;;;;;;5053290;28;20242;-72
2021/12/10 04:43:54;;;;;;;24.50;22.70;;;1.20;89.10;;;;;;5053722;28;20240;-72
2021/12/10 04:46:21;;;;;;;25.02;23.15;;;1.20;89.30;;;;;;5053655;28;20674;-72
2021/12/10 04:48:53;;;;;;;23.15;21.73;;;1.20;89.20;;;;;;5053840;28;20204;-72
2021/12/10 04:51:22;;;;;;;23.00;21.60;;;1.20;89.20;;;;;;5053428;28;20207;-72
2021/12/10 04:53:49;;;;;;;26.88;24.27;;;1.20;89.00;;;;;;5053471;28;20559;-72
2021/12/10 04:56:17;;;;;;;22.38;21.05;;;1.20;90.40;;;;;;5053731;28;20291;-72
2021/12/10 04:58:45;;;;;;;302.40;57.67;;;1.20;92.50;;;;;;5053585;28;20197;-72
2021/12/10 05:01:12;;;;;;;22.60;21.20;;;1.20;91.40;;;;;;5053758;28;20205;-72
2021/12/10 05:03:39;;;;;;;23.10;21.58;;;1.20;91.90;;;;;;5053216;28;20216;-72
2021/12/10 05:06:07;;;;;;;22.38;20.50;;;1.20;90.10;;;;;;5053514;28;20547;-72
2021/12/10 05:08:36;;;;;;;24.08;22.25;;;1.20;90.00;;;;;;5053470;28;20208;-72
2021/12/10 05:11:05;;;;;;;24.25;22.17;;;1.10;90.00;;;;;;5053389;28;20193;-72
2021/12/10 05:13:32;;;;;;;24.55;22.60;;;1.10;89.90;;;;;;5053268;28;20223;-72
2021/12/10 05:16:02;;;;;;;24.08;22.40;;;1.10;89.50;;;;;;5053458;28;20204;-72
2021/12/10 05:18:33;;;;;;;24.40;22.30;;;1.20;89.10;;;;;;5053492;28;20196;-72
2021/12/10 05:21:00;;;;;;;25.38;23.50;;;1.20;89.00;;;;;;5053437;28;20215;-72
2021/12/10 05:23:27;;;;;;;25.98;24.02;;;1.00;89.20;;;;;;5052848;28;20213;-71
2021/12/10 05:25:54;;;;;;;24.10;22.67;;;0.90;89.70;;;;;;5053073;28;20216;-71
2021/12/10 05:28:21;;;;;;;24.10;22.17;;;0.90;90.20;;;;;;5053154;28;20206;-71
2021/12/10 05:30:54;;;;;;;24.30;22.60;;;0.80;90.60;;;;;;5053085;28;20199;-72
2021/12/10 05:33:23;;;;;;;22.75;20.85;;;0.70;91.10;;;;;;5052682;28;20231;-72
2021/12/10 05:35:51;;;;;;;24.48;23.08;;;0.80;90.40;;;;;;5053103;28;20201;-72
2021/12/10 05:38:19;;;;;;;23.90;22.35;;;0.80;90.60;;;;;;5053006;28;20196;-72
2021/12/10 05:40:49;;;;;;;25.52;23.63;;;0.70;90.40;;;;;;5052403;28;20223;-72
2021/12/10 05:43:16;;;;;;;24.17;22.67;;;0.70;90.90;;;;;;5052624;28;20224;-72
2021/12/10 05:45:44;;;;;;;24.63;23.15;;;0.70;90.80;;;;;;5052374;28;20242;-72
2021/12/10 05:48:11;;;;;;;25.85;23.88;;;0.60;91.40;;;;;;5052817;28;20302;-72
2021/12/10 05:50:39;;;;;;;23.92;22.27;;;0.50;91.60;;;;;;5052830;28;20201;-72
2021/12/10 05:53:07;;;;;;;26.50;24.05;;;0.60;91.60;;;;;;5052593;28;20299;-72
2021/12/10 05:55:37;;;;;;;25.25;23.55;;;0.70;90.90;;;;;;5052664;28;20195;-72
2021/12/10 05:58:05;;;;;;;25.38;23.38;;;0.70;90.80;;;;;;5052697;28;20196;-72
2021/12/10 06:00:36;;;;;;;23.35;21.85;;;0.70;91.30;;;;;;5052654;28;20286;-71
2021/12/10 06:03:04;;;;;;;344.83;54.80;;;0.80;91.40;;;;;;5051625;28;20220;-72
2021/12/10 06:05:33;;;;;;;25.27;23.67;;;0.80;91.40;;;;;;5052413;28;20220;-72
2021/12/10 06:08:02;;;;;;;550.05;90.63;;;0.80;94.70;;;;;;5052629;28;20228;-72
2021/12/10 06:10:29;;;;;;;1172.63;165.43;;;0.80;97.90;;;;;;5052366;28;20279;-72
2021/12/10 06:12:57;;;;;;;26.27;24.38;;;0.90;99.90;;;;;;5052189;28;20196;-72
2021/12/10 06:15:25;;;;;;;1999.90;997.80;;;0.90;97.90;;;;;;5052430;28;20276;-72
2021/12/10 06:17:53;;;;;;;24.80;22.80;;;0.90;98.40;;;;;;5052489;28;20279;-72
2021/12/10 06:20:24;;;;;;;25.25;23.23;;;0.90;99.40;;;;;;5052433;28;20681;-71
2021/12/10 06:22:52;;;;;;;23.95;22.30;;;0.90;97.70;;;;;;5052168;28;20291;-72
2021/12/10 06:25:20;;;;;;;23.50;21.90;;;0.90;96.50;;;;;;5052370;28;20222;-72
2021/12/10 06:27:47;;;;;;;26.10;24.38;;;0.90;95.60;;;;;;5052367;28;20207;-71
2021/12/10 06:30:16;;;;;;;26.48;24.58;;;0.90;94.90;;;;;;5052425;28;20562;-72
2021/12/10 06:32:44;;;;;;;25.80;24.05;;;0.90;94.00;;;;;;5052076;28;20197;-72
2021/12/10 06:35:14;;;;;;;22.00;20.30;;;0.80;93.20;;;;;;5052281;28;20669;-72
2021/12/10 06:37:43;;;;;;;24.85;22.85;;;0.80;93.90;;;;;;5052309;28;20283;-72
2021/12/10 06:40:12;;;;;;;23.45;21.73;;;0.80;93.40;;;;;;5051705;28;20196;-72
2021/12/10 06:42:40;;;;;;;25.27;23.45;;;0.80;94.20;;;;;;5052291;28;20555;-72
2021/12/10 06:45:10;;;;;;;24.45;22.75;;;0.80;92.90;;;;;;5051752;28;20231;-72
2021/12/10 06:47:40;;;;;;;23.25;21.70;;;0.80;92.30;;;;;;5052230;28;20203;-72
2021/12/10 06:50:09;;;;;;;25.73;23.80;;;0.80;92.20;;;;;;5052106;28;20201;-72
2021/12/10 06:52:36;;;;;;;26.05;24.40;;;0.70;91.80;;;;;;5052179;28;20228;-72
2021/12/10 06:55:03;;;;;;;25.02;22.80;;;0.70;92.10;;;;;;5051892;28;20597;-72
2021/12/10 06:57:31;;;;;;;26.55;24.95;;;0.70;92.10;;;;;;5052100;28;20196;-72
2021/12/10 07:00:00;;;;;;;27.58;24.95;;;0.60;92.10;;;;;;5051960;28;20228;-72
2021/12/10 07:02:27;;;;;;;27.08;25.05;;;0.70;92.20;;;;;;5052008;28;20204;-72
2021/12/10 07:04:54;;;;;;;24.73;22.98;;;0.80;92.30;;;;;;5051721;28;20307;-72
2021/12/10 07:07:21;;;;;;;26.20;24.30;;;0.90;91.50;;;;;;5052014;28;20204;-72
2021/12/10 07:09:48;;;;;;;26.08;24.05;;;0.70;91.40;;;;;;5051885;28;20284;-72
2021/12/10 07:12:15;;;;;;;25.77;23.88;;;0.70;91.90;;;;;;5051868;28;20196;-71
2021/12/10 07:14:43;;;;;;;26.23;24.45;;;0.70;92.30;;;;;;5054193;28;20208;-72
2021/12/10 07:17:11;;;;;;;26.15;24.08;;;0.70;92.10;;;;;;5055557;28;20566;-72
2021/12/10 07:19:40;;;;;;;27.05;25.02;;;0.70;91.60;;;;;;5055501;28;20197;-72
2021/12/10 07:22:07;;;;;;;26.60;24.67;;;0.60;91.80;;;;;;5055406;28;20197;-72
2021/12/10 07:24:34;;;;;;;26.70;24.95;;;0.60;91.70;;;;;;5055236;28;20231;-72
2021/12/10 07:27:01;;;;;;;25.95;23.80;;;0.70;92.10;;;;;;5055427;28;20216;-72
2021/12/10 07:29:28;;;;;;;25.08;23.08;;;0.80;94.70;;;;;;5055330;28;20200;-72
2021/12/10 07:31:55;;;;;;;25.27;23.52;;;0.80;92.10;;;;;;5055204;28;20219;-72
2021/12/10 07:34:23;;;;;;;26.77;24.80;;;0.70;90.90;;;;;;5054974;28;20706;-72
2021/12/10 07:36:50;;;;;;;28.65;26.75;;;0.70;91.10;;;;;;5055237;28;20204;-72
2021/12/10 07:39:17;;;;;;;27.27;25.08;;;0.90;91.50;;;;;;5055065;28;20655;-72
2021/12/10 07:41:44;;;;;;;25.40;23.70;;;1.00;90.50;;;;;;5054775;28;20765;-72
2021/12/10 07:44:12;;;;;;;26.52;24.48;;;1.00;90.50;;;;;;5054813;28;20216;-72
2021/12/10 07:46:40;;;;;;;26.70;24.85;;;1.10;90.00;;;;;;5054827;28;20216;-72
2021/12/10 07:49:15;;;;;;;27.40;25.40;;;1.20;89.90;;;;;;5055015;28;20197;-72
2021/12/10 07:51:49;;;;;;;27.77;25.77;;;1.20;89.70;;;;;;5054990;28;20196;-72
2021/12/10 07:54:16;;;;;;;28.10;26.00;;;1.20;90.10;;;;;;5054711;28;20216;-72
2021/12/10 07:56:43;;;;;;;27.80;25.50;;;1.20;90.40;;;;;;5054855;28;20192;-72
2021/12/10 07:59:10;;;;;;;28.58;26.25;;;1.30;90.30;;;;;;5054596;28;20201;-72
2021/12/10 08:01:37;;;;;;;27.42;25.40;;;1.40;89.80;;;;;;5054758;28;20292;-72
2021/12/10 08:04:06;;;;;;;28.70;26.60;;;1.50;90.00;;;;;;5054391;28;20303;-72
2021/12/10 08:06:35;;;;;;;27.73;25.45;;;1.70;89.90;;;;;;5054658;28;20225;-72
2021/12/10 08:09:04;;;;;;;106.82;34.47;;;1.70;91.70;;;;;;5054566;28;20208;-72
2021/12/10 08:11:31;;;;;;;27.60;25.50;;;1.70;91.70;;;;;;5054382;28;20655;-72
2021/12/10 08:13:58;;;;;;;26.80;24.67;;;1.80;92.40;;;;;;5054331;28;20220;-72
2021/12/10 08:16:25;;;;;;;26.63;24.67;;;1.80;90.90;;;;;;5054535;28;20689;-72
2021/12/10 08:18:53;;;;;;;26.15;24.45;;;2.00;89.90;;;;;;5054430;28;20197;-72
2021/12/10 08:21:20;;;;;;;134.55;37.05;;;2.00;93.20;;;;;;5054470;28;20197;-72
2021/12/10 08:23:47;;;;;;;584.05;82.85;;;2.00;93.60;;;;;;5054018;28;20213;-72
2021/12/10 08:26:15;;;;;;;27.13;25.10;;;2.10;93.20;;;;;;5053616;28;20220;-72
2021/12/10 08:28:43;;;;;;;25.73;24.00;;;2.20;91.20;;;;;;5054237;28;20200;-72
2021/12/10 08:31:14;;;;;;;28.05;25.85;;;2.20;89.30;;;;;;5054236;28;20203;-72
2021/12/10 08:33:42;;;;;;;26.10;24.38;;;2.30;88.00;;;;;;5053917;28;20294;-72
2021/12/10 08:36:09;;;;;;;26.77;24.92;;;2.30;87.80;;;;;;5054113;28;20239;-72
2021/12/10 08:38:37;;;;;;;169.80;38.03;;;2.40;87.10;;;;;;5054058;28;20197;-72
2021/12/10 08:41:08;;;;;;;27.70;25.58;;;2.40;88.30;;;;;;5053281;28;20211;-72
2021/12/10 08:43:37;;;;;;;25.48;23.60;;;2.40;89.80;;;;;;5053645;28;20231;-72
2021/12/10 08:46:05;;;;;;;28.00;25.73;;;2.50;91.90;;;;;;5053417;28;20567;-72
2021/12/10 08:48:35;;;;;;;219.10;41.40;;;2.50;91.90;;;;;;5053923;28;20200;-72
2021/12/10 08:51:07;;;;;;;27.65;25.50;;;2.60;90.40;;;;;;5053782;28;20205;-72
2021/12/10 08:53:34;;;;;;;30.05;27.48;;;2.70;89.70;;;;;;5053470;28;20711;-72
2021/12/10 08:56:01;;;;;;;28.42;26.20;;;2.80;88.70;;;;;;5053801;28;20188;-72
2021/12/10 08:58:28;;;;;;;26.75;24.60;;;3.00;87.70;;;;;;5053627;28;20288;-72
2021/12/10 09:00:59;;;;;;;27.77;25.33;;;3.10;86.00;;;;;;5053526;28;20266;-72
2021/12/10 09:03:27;;;;;;;27.85;25.73;;;3.20;84.40;;;;;;5053296;28;20216;-72
2021/12/10 09:05:54;;;;;;;27.75;25.95;;;3.30;83.60;;;;;;5053453;28;20224;-72
2021/12/10 09:08:22;;;;;;;28.48;26.20;;;3.10;82.10;;;;;;5053472;28;20205;-72
2021/12/10 09:10:49;;;;;;;29.05;27.02;;;3.40;81.10;;;;;;5053263;28;20200;-72
2021/12/10 09:13:19;;;;;;;30.25;27.60;;;3.30;80.70;;;;;;5053119;28;20307;-72
2021/12/10 09:15:50;;;;;;;29.50;27.10;;;3.30;82.70;;;;;;5053468;28;20558;-72
2021/12/10 09:18:18;;;;;;;39.67;29.23;;;3.40;81.40;;;;;;5053227;28;20283;-72
2021/12/10 09:20:49;;;;;;;29.55;27.15;;;3.50;82.40;;;;;;5053238;28;20196;-72
2021/12/10 09:23:19;;;;;;;350.65;55.70;;;3.50;84.60;;;;;;5052984;28;20216;-72
2021/12/10 09:25:46;;;;;;;95.82;31.40;;;3.50;92.00;;;;;;5053270;28;20278;-72
2021/12/10 09:28:13;;;;;;;29.58;27.35;;;3.50;89.80;;;;;;5053111;28;20197;-72
2021/12/10 09:30:45;;;;;;;34.45;26.98;;;3.50;87.40;;;;;;5053028;28;20196;-72
2021/12/10 09:33:12;;;;;;;27.55;25.48;;;3.60;84.70;;;;;;5052843;28;20221;-72
2021/12/10 09:35:41;;;;;;;28.75;26.98;;;3.70;84.50;;;;;;5053028;28;20540;-71
2021/12/10 09:38:09;;;;;;;27.38;25.33;;;3.80;82.30;;;;;;5052057;28;20196;-72
2021/12/10 09:40:39;;;;;;;28.10;26.25;;;3.80;80.10;;;;;;5052322;28;20555;-72
2021/12/10 09:43:08;;;;;;;25.88;23.77;;;3.90;78.50;;;;;;5052495;28;20304;-72
2021/12/10 09:45:37;;;;;;;26.30;24.60;;;3.90;76.90;;;;;;5052437;28;20216;-72
2021/12/10 09:48:06;;;;;;;23.35;21.98;;;4.00;76.30;;;;;;5052912;28;20193;-72
2021/12/10 09:50:37;;;;;;;27.52;25.63;;;4.10;75.70;;;;;;5052703;28;20197;-72
2021/12/10 09:53:09;;;;;;;28.77;24.73;;;4.30;75.10;;;;;;5052296;28;20224;-72
2021/12/10 09:55:37;;;;;;;25.85;24.05;;;4.40;77.60;;;;;;5052846;28;20203;-72
2021/12/10 09:58:06;;;;;;;25.40;23.58;;;4.50;78.50;;;;;;5052646;28;20570;-72
2021/12/10 10:00:37;;;;;;;26.70;24.77;;;4.60;77.50;;;;;;5052666;28;20200;-72
2021/12/10 10:03:07;;;;;;;25.77;24.17;;;4.60;76.30;;;;;;5052443;28;20243;-72
2021/12/10 10:05:34;;;;;;;23.90;22.40;;;4.60;75.70;;;;;;5052495;28;20216;-72
2021/12/10 10:08:07;;;;;;;23.33;21.70;;;4.60;76.50;;;;;;5052579;28;20291;-72
2021/12/10 10:10:35;;;;;;;26.20;24.10;;;4.60;74.30;;;;;;5052480;28;20213;-72
2021/12/10 10:13:03;;;;;;;24.17;22.48;;;4.70;74.90;;;;;;5052225;28;20204;-72
2021/12/10 10:15:36;;;;;;;24.63;22.80;;;4.70;80.60;;;;;;5052383;28;20203;-72
2021/12/10 10:18:10;;;;;;;24.98;23.38;;;4.70;72.00;;;;;;5052538;28;20283;-72
2021/12/10 10:20:41;;;;;;;24.73;23.13;;;4.70;71.60;;;;;;5052400;28;20287;-72
2021/12/10 10:23:11;;;;;;;26.27;24.75;;;4.70;72.00;;;;;;5052158;28;20223;-72
2021/12/10 10:25:40;;;;;;;25.17;23.67;;;4.80;71.70;;;;;;5052385;28;20222;-72
2021/12/10 10:28:10;;;;;;;24.40;22.95;;;4.90;70.20;;;;;;5052442;28;20246;-72
2021/12/10 10:30:39;;;;;;;25.98;24.48;;;4.90;68.70;;;;;;5052408;28;20623;-72
2021/12/10 10:33:09;;;;;;;25.20;23.60;;;4.90;71.10;;;;;;5051929;28;20307;-72
2021/12/10 10:35:40;;;;;;;25.73;24.02;;;4.90;77.60;;;;;;5052240;28;20572;-72
2021/12/10 10:38:10;;;;;;;23.88;22.38;;;5.00;74.40;;;;;;5052221;28;20196;-72
2021/12/10 10:40:41;;;;;;;24.55;23.15;;;5.00;74.90;;;;;;5051732;28;20216;-72
2021/12/10 10:43:09;;;;;;;24.08;22.77;;;5.10;71.00;;;;;;5052110;28;20598;-72
2021/12/10 10:45:39;;;;;;;25.90;24.15;;;5.10;68.60;;;;;;5051673;28;20212;-72
2021/12/10 10:48:07;;;;;;;26.02;24.40;;;5.20;68.20;;;;;;5052336;28;20203;-72
2021/12/10 10:50:39;;;;;;;26.17;24.02;;;5.20;68.60;;;;;;5056196;28;20737;-72
2021/12/10 10:53:11;;;;;;;24.55;23.15;;;5.20;68.40;;;;;;5055904;28;20227;-73
2021/12/10 10:55:43;;;;;;;24.55;23.05;;;5.20;68.20;;;;;;5056058;28;20203;-72
2021/12/10 10:58:12;;;;;;;24.92;23.52;;;5.30;67.30;;;;;;5056136;28;20291;-73
2021/12/10 11:00:46;;;;;;;23.40;22.00;;;5.40;68.70;;;;;;5056021;28;20196;-73
2021/12/10 11:03:16;;;;;;;23.90;22.50;;;5.50;68.70;;;;;;5055773;28;20221;-72
2021/12/10 11:05:48;;;;;;;23.75;22.30;;;5.50;66.20;;;;;;5055751;28;20228;-73
2021/12/10 11:08:27;;;;;;;25.88;24.27;;;5.40;65.70;;;;;;5055800;28;20551;-72
2021/12/10 11:10:58;;;;;;;27.08;25.58;;;5.30;71.50;;;;;;5055719;28;20299;-73
2021/12/10 11:13:27;;;;;;;25.27;23.92;;;5.40;69.90;;;;;;5055440;28;20213;-73
2021/12/10 11:16:01;;;;;;;23.75;22.23;;;5.50;67.40;;;;;;5055617;28;20192;-72
2021/12/10 11:18:28;;;;;;;24.40;22.65;;;5.60;65.60;;;;;;5055703;28;20279;-73
2021/12/10 11:20:55;;;;;;;23.35;21.70;;;5.60;65.90;;;;;;5055577;28;20192;-73
2021/12/10 11:23:26;;;;;;;23.58;21.98;;;5.80;66.80;;;;;;5055194;28;20247;-72
2021/12/10 11:25:55;;;;;;;23.80;22.20;;;5.80;65.00;;;;;;5055499;28;20601;-72
2021/12/10 11:28:26;;;;;;;25.27;22.63;;;5.90;64.30;;;;;;5055381;28;20562;-72
2021/12/10 11:31:03;;;;;;;23.45;21.85;;;5.90;63.80;;;;;;5055429;28;20581;-73
2021/12/10 11:33:32;;;;;;;22.63;21.38;;;6.00;61.20;;;;;;5055177;28;20245;-72
2021/12/10 11:36:05;;;;;;;24.00;22.40;;;6.00;61.70;;;;;;5055245;28;20561;-72
2021/12/10 11:38:35;;;;;;;25.30;22.40;;;6.10;61.90;;;;;;5055281;28;20662;-72
2021/12/10 11:41:06;;;;;;;22.42;21.02;;;6.00;62.40;;;;;;5054827;28;20296;-72
2021/12/10 11:43:56;;;;;;;22.10;20.70;;;5.90;64.20;;;;;;5054971;28;20251;-72
2021/12/10 11:46:44;;;;;;;22.50;21.30;;;5.90;63.70;;;;;;5054699;28;20224;-72
2021/12/10 11:49:16;;;;;;;22.98;21.30;;;5.80;64.80;;;;;;5055111;28;20208;-72
2021/12/10 11:51:48;;;;;;;22.67;21.27;;;5.60;67.20;;;;;;5055037;28;20208;-72
2021/12/10 11:54:29;;;;;;;23.00;21.80;;;5.50;69.10;;;;;;5054686;28;20227;-72
2021/12/10 11:57:01;;;;;;;22.35;21.15;;;5.40;70.40;;;;;;5055034;28;20654;-72
2021/12/10 11:59:30;;;;;;;22.35;21.15;;;5.40;71.60;;;;;;5054555;28;20197;-72
2021/12/10 12:02:01;;;;;;;21.65;20.45;;;5.20;73.80;;;;;;5054261;28;20299;-72
2021/12/10 12:04:32;;;;;;;22.40;21.20;;;5.00;75.50;;;;;;5054485;28;20737;-72
2021/12/10 12:07:30;;;;;;;21.92;20.73;;;4.70;77.40;;;;;;5054799;28;20216;-72
2021/12/10 12:10:03;;;;;;;1159.30;139.45;;;4.70;77.80;;;;;;5054659;28;20673;-72
2021/12/10 12:12:37;;;;;;;22.13;20.48;;;4.50;83.20;;;;;;5054551;28;20227;-72
2021/12/10 12:15:12;;;;;;;20.55;19.33;;;4.40;83.70;;;;;;5054289;28;20216;-72
2021/12/10 12:17:43;;;;;;;21.88;20.05;;;4.30;89.60;;;;;;5054546;28;20684;-72
2021/12/10 12:20:35;;;;;;;21.60;19.95;;;4.40;88.10;;;;;;5054418;28;20574;-72
2021/12/10 12:25:53;;;;;;;20.40;19.10;;;4.30;84.70;;;;;;5054330;28;20199;-72
2021/12/10 12:28:24;;;;;;;21.73;20.65;;;4.30;84.60;;;;;;5054339;28;20197;-72
2021/12/10 12:31:10;;;;;;;21.60;20.50;;;4.30;90.60;;;;;;5054202;28;20650;-72
2021/12/10 12:33:57;;;;;;;21.40;20.30;;;4.30;86.00;;;;;;5054004;28;20212;-72
2021/12/10 12:36:29;;;;;;;22.40;21.30;;;4.20;84.40;;;;;;5054389;28;20193;-72
2021/12/10 12:38:57;;;;;;;23.98;22.58;;;4.10;83.50;;;;;;5054261;28;20201;-72
2021/12/10 12:41:28;;;;;;;22.90;21.55;;;4.10;83.30;;;;;;5053443;28;20295;-72
2021/12/10 12:44:20;;;;;;;23.92;22.50;;;4.10;84.00;;;;;;5053841;28;20224;-72
2021/12/10 12:47:08;;;;;;;22.88;21.48;;;4.20;85.30;;;;;;5053556;28;20694;-72
2021/12/10 12:49:56;;;;;;;74.10;26.52;;;4.40;84.20;;;;;;5054055;28;20201;-72
2021/12/10 12:52:26;;;;;;;23.50;22.15;;;4.50;85.10;;;;;;5053893;28;20207;-72
2021/12/10 12:55:25;;;;;;;21.48;20.33;;;4.40;84.80;;;;;;5053571;28;20224;-72
2021/12/10 12:58:00;;;;;;;22.88;21.55;;;4.50;84.00;;;;;;5031152;28;20200;-72
2021/12/10 13:00:32;;;;;;;25.10;23.30;;;4.40;83.90;;;;;;5053601;28;20286;-72